createdAt,value
2022-09-05T00:00:38.846Z,82.45
2022-09-05T00:01:38.864Z,82.26
2022-09-05T00:02:39.316Z,82.07
2022-09-05T00:03:39.010Z,82.07
2022-09-05T00:04:38.947Z,82.26
2022-09-05T00:05:46.523Z,82.07
2022-09-05T00:06:38.941Z,81.40
2022-09-05T00:07:58.273Z,81.40
2022-09-05T00:08:38.972Z,81.49
2022-09-05T00:09:38.990Z,81.49
2022-09-05T00:10:51.951Z,81.59
2022-09-05T00:11:40.386Z,81.30
2022-09-05T00:12:39.035Z,81.40
2022-09-05T00:13:39.096Z,81.68
2022-09-05T00:15:17.254Z,81.68
2022-09-05T00:15:39.114Z,81.59
2022-09-05T00:16:39.106Z,81.49
2022-09-05T00:18:04.929Z,81.78
2022-09-05T00:23:17.593Z,81.30
2022-09-05T00:24:25.045Z,81.11
2022-09-05T00:24:26.334Z,81.02
2022-09-05T00:24:31.033Z,80.92
2022-09-05T00:24:32.755Z,80.82
2022-09-05T00:24:34.404Z,80.63
2022-09-05T00:24:50.197Z,80.73
2022-09-05T00:25:39.742Z,80.82
2022-09-05T00:26:43.872Z,80.82
2022-09-05T00:27:39.296Z,81.02
2022-09-05T00:28:39.304Z,80.54
2022-09-05T00:30:57.316Z,80.73
2022-09-05T00:31:07.680Z,80.82
2022-09-05T00:31:54.851Z,80.63
2022-09-05T00:32:39.442Z,80.44
2022-09-05T00:33:39.375Z,80.16
2022-09-05T00:34:47.289Z,80.44
2022-09-05T00:35:39.414Z,80.63
2022-09-05T00:36:39.423Z,80.25
2022-09-05T00:37:39.443Z,80.35
2022-09-05T00:38:39.459Z,80.54
2022-09-05T00:39:39.550Z,80.63
2022-09-05T00:40:39.606Z,80.35
2022-09-05T00:41:39.509Z,80.63
2022-09-05T00:42:39.527Z,80.35
2022-09-05T00:43:39.542Z,80.73
2022-09-05T00:44:39.558Z,80.16
2022-09-05T00:45:39.582Z,80.25
2022-09-05T00:46:39.767Z,80.63
2022-09-05T00:47:39.602Z,80.54
2022-09-05T00:48:39.621Z,80.25
2022-09-05T00:49:39.633Z,80.16
2022-09-05T00:50:39.651Z,80.25
2022-09-05T00:51:39.670Z,79.87
2022-09-05T00:52:39.689Z,79.87
2022-09-05T00:53:39.701Z,80.25
2022-09-05T00:54:41.222Z,80.35
2022-09-05T00:55:39.735Z,79.87
2022-09-05T00:56:39.746Z,80.63
2022-09-05T00:57:39.766Z,79.96
2022-09-05T00:58:39.785Z,80.30
2022-09-05T00:59:39.804Z,81.02
2022-09-05T01:00:39.814Z,80.88
2022-09-05T01:01:39.917Z,80.98
2022-09-05T01:02:51.710Z,81.07
2022-09-05T01:03:39.861Z,81.26
2022-09-05T01:04:39.877Z,81.26
2022-09-05T01:05:39.895Z,81.07
2022-09-05T01:06:39.912Z,81.07
2022-09-05T01:07:46.669Z,81.07
2022-09-05T01:08:39.940Z,81.16
2022-09-05T01:09:39.962Z,81.07
2022-09-05T01:10:39.970Z,80.69
2022-09-05T01:11:39.990Z,80.69
2022-09-05T01:12:40.009Z,80.79
2022-09-05T01:13:40.026Z,80.35
2022-09-05T01:14:40.039Z,80.30
2022-09-05T01:15:40.154Z,80.30
2022-09-05T01:16:40.173Z,80.30
2022-09-05T01:17:40.086Z,80.11
2022-09-05T01:18:40.107Z,80.79
2022-09-05T01:19:40.121Z,80.69
2022-09-05T01:20:40.140Z,81.26
2022-09-05T01:21:40.152Z,81.26
2022-09-05T01:22:40.165Z,81.16
2022-09-05T01:23:40.182Z,80.79
2022-09-05T01:24:40.199Z,81.07
2022-09-05T01:25:40.359Z,80.11
2022-09-05T01:26:40.232Z,80.21
2022-09-05T01:28:32.942Z,80.11
2022-09-05T01:29:15.737Z,80.30
2022-09-05T01:29:40.285Z,80.11
2022-09-05T01:30:40.294Z,80.30
2022-09-05T01:31:40.315Z,80.50
2022-09-05T01:32:40.323Z,80.21
2022-09-05T01:33:40.573Z,80.11
2022-09-05T01:34:40.356Z,79.93
2022-09-05T01:35:40.372Z,79.83
2022-09-05T01:36:40.395Z,79.83
2022-09-05T01:37:40.415Z,79.64
2022-09-05T01:38:40.454Z,79.93
2022-09-05T01:40:12.204Z,79.83
2022-09-05T01:40:40.525Z,80.11
2022-09-05T01:41:40.476Z,80.11
2022-09-05T01:42:40.485Z,80.02
2022-09-05T01:43:40.506Z,79.93
2022-09-05T01:44:40.521Z,80.21
2022-09-05T01:45:40.535Z,80.21
2022-09-05T01:46:40.587Z,80.88
2022-09-05T01:47:40.568Z,80.88
2022-09-05T01:48:41.002Z,80.88
2022-09-05T01:49:40.596Z,80.98
2022-09-05T01:50:40.614Z,80.69
2022-09-05T01:51:40.734Z,80.69
2022-09-05T01:52:57.292Z,81.26
2022-09-05T01:53:40.666Z,81.16
2022-09-05T01:54:40.676Z,81.36
2022-09-05T01:56:04.388Z,81.36
2022-09-05T01:56:40.710Z,81.36
2022-09-05T01:57:40.724Z,81.55
2022-09-05T01:58:40.748Z,81.65
2022-09-05T01:59:40.759Z,81.65
2022-09-05T02:00:40.776Z,81.45
2022-09-05T02:01:40.924Z,81.65
2022-09-05T02:02:41.002Z,81.26
2022-09-05T02:03:40.825Z,81.36
2022-09-05T02:04:40.838Z,81.74
2022-09-05T02:05:48.486Z,82.03
2022-09-05T02:06:43.214Z,82.51
2022-09-05T02:07:40.893Z,82.89
2022-09-05T02:08:41.822Z,83.75
2022-09-05T02:09:40.922Z,83.27
2022-09-05T02:10:40.932Z,83.56
2022-09-05T02:11:40.950Z,83.27
2022-09-05T02:12:40.964Z,83.56
2022-09-05T02:13:40.981Z,83.56
2022-09-05T02:14:40.996Z,83.27
2022-09-05T02:15:41.070Z,83.27
2022-09-05T02:16:41.025Z,83.37
2022-09-05T02:17:49.952Z,83.27
2022-09-05T02:18:41.061Z,83.56
2022-09-05T02:19:41.076Z,83.65
2022-09-05T02:20:41.088Z,83.75
2022-09-05T02:21:56.889Z,84.03
2022-09-05T02:22:41.116Z,83.84
2022-09-05T02:23:42.486Z,83.84
2022-09-05T02:24:41.154Z,83.75
2022-09-05T02:26:00.998Z,83.75
2022-09-05T02:26:41.181Z,83.65
2022-09-05T02:28:05.588Z,83.46
2022-09-05T02:28:41.218Z,83.75
2022-09-05T02:29:41.235Z,83.56
2022-09-05T02:30:47.421Z,83.37
2022-09-05T02:31:41.440Z,83.46
2022-09-05T02:32:43.283Z,82.98
2022-09-05T02:33:41.293Z,82.98
2022-09-05T02:34:41.307Z,82.98
2022-09-05T02:35:41.344Z,82.70
2022-09-05T02:36:41.338Z,82.12
2022-09-05T02:38:47.110Z,82.22
2022-09-05T02:40:41.415Z,83.46
2022-09-05T02:45:00.955Z,82.98
2022-09-05T02:45:02.920Z,82.03
2022-09-05T02:45:12.502Z,83.94
2022-09-05T02:45:12.792Z,83.65
2022-09-05T02:45:17.334Z,83.37
2022-09-05T02:45:18.659Z,84.03
2022-09-05T02:45:41.562Z,84.03
2022-09-05T02:46:41.647Z,84.13
2022-09-05T02:47:41.509Z,83.84
2022-09-05T02:48:41.523Z,83.75
2022-09-05T02:52:19.849Z,84.32
2022-09-05T02:56:34.681Z,84.23
2022-09-05T02:57:24.513Z,83.75
2022-09-05T02:57:25.428Z,83.27
2022-09-05T02:57:36.372Z,83.08
2022-09-05T02:57:38.989Z,83.46
2022-09-05T02:57:40.791Z,83.56
2022-09-05T02:57:40.979Z,83.46
2022-09-05T02:58:07.335Z,83.37
2022-09-05T02:59:08.011Z,83.17
2022-09-05T02:59:41.696Z,82.98
2022-09-05T03:00:41.710Z,83.27
2022-09-05T03:01:41.808Z,83.37
2022-09-05T03:02:41.797Z,83.17
2022-09-05T03:03:41.805Z,82.70
2022-09-05T03:04:41.774Z,82.41
2022-09-05T03:05:41.792Z,82.79
2022-09-05T03:06:41.806Z,82.79
2022-09-05T03:07:41.993Z,82.70
2022-09-05T03:08:41.837Z,82.79
2022-09-05T03:09:41.851Z,82.98
2022-09-05T03:10:53.430Z,82.79
2022-09-05T03:11:41.881Z,82.51
2022-09-05T03:12:41.905Z,82.60
2022-09-05T03:13:54.137Z,82.31
2022-09-05T03:14:41.926Z,82.70
2022-09-05T03:15:41.947Z,82.70
2022-09-05T03:16:47.422Z,82.70
2022-09-05T03:17:41.977Z,83.37
2022-09-05T03:18:41.992Z,82.98
2022-09-05T03:19:46.156Z,83.56
2022-09-05T03:20:42.024Z,83.84
2022-09-05T03:21:42.042Z,84.32
2022-09-05T03:22:42.059Z,84.28
2022-09-05T03:23:42.066Z,83.90
2022-09-05T03:24:42.087Z,84.28
2022-09-05T03:25:42.099Z,84.09
2022-09-05T03:26:42.115Z,84.38
2022-09-05T03:27:42.141Z,85.14
2022-09-05T03:28:42.149Z,84.95
2022-09-05T03:29:42.163Z,84.95
2022-09-05T03:30:42.259Z,85.05
2022-09-05T03:31:42.196Z,84.76
2022-09-05T03:32:42.370Z,85.52
2022-09-05T03:33:42.230Z,85.14
2022-09-05T03:34:42.241Z,84.85
2022-09-05T03:35:42.256Z,85.52
2022-09-05T03:36:42.271Z,85.62
2022-09-05T03:37:42.283Z,85.62
2022-09-05T03:38:43.352Z,86.19
2022-09-05T03:39:42.453Z,85.90
2022-09-05T03:40:42.339Z,86.29
2022-09-05T03:41:42.349Z,86.29
2022-09-05T03:42:42.366Z,86.57
2022-09-05T03:43:42.377Z,86.67
2022-09-05T03:44:42.394Z,85.71
2022-09-05T03:45:42.486Z,85.62
2022-09-05T03:46:42.427Z,85.33
2022-09-05T03:47:42.456Z,85.05
2022-09-05T03:48:42.465Z,85.14
2022-09-05T03:52:53.429Z,84.85
2022-09-05T03:55:45.451Z,85.05
2022-09-05T03:57:07.800Z,85.52
2022-09-05T03:57:12.399Z,85.42
2022-09-05T03:57:16.802Z,85.90
2022-09-05T03:57:17.965Z,85.52
2022-09-05T03:57:27.647Z,86.00
2022-09-05T03:57:27.903Z,86.10
2022-09-05T03:57:43.239Z,86.76
2022-09-05T03:58:56.442Z,86.76
2022-09-05T03:59:42.627Z,86.38
2022-09-05T04:00:42.640Z,85.71
2022-09-05T04:04:20.316Z,85.52
2022-09-05T04:08:07.159Z,84.85
2022-09-05T04:08:08.970Z,85.24
2022-09-05T04:08:11.060Z,85.05
2022-09-05T04:08:16.078Z,84.47
2022-09-05T04:08:26.020Z,84.47
2022-09-05T04:08:30.794Z,84.47
2022-09-05T04:08:43.550Z,84.56
2022-09-05T04:09:50.933Z,84.66
2022-09-05T04:10:42.895Z,84.28
2022-09-05T04:11:42.808Z,84.19
2022-09-05T04:12:42.852Z,83.99
2022-09-05T04:13:42.837Z,83.51
2022-09-05T04:14:42.854Z,83.23
2022-09-05T04:15:42.871Z,83.61
2022-09-05T04:16:42.954Z,83.23
2022-09-05T04:17:42.909Z,83.33
2022-09-05T04:18:42.914Z,83.42
2022-09-05T04:19:42.932Z,83.23
2022-09-05T04:20:42.952Z,83.42
2022-09-05T04:21:42.965Z,83.33
2022-09-05T04:22:42.981Z,83.33
2022-09-05T04:23:42.990Z,83.61
2022-09-05T04:24:43.013Z,83.23
2022-09-05T04:25:43.025Z,83.42
2022-09-05T04:26:43.038Z,83.90
2022-09-05T04:27:43.056Z,84.19
2022-09-05T04:28:53.448Z,85.05
2022-09-05T04:29:43.085Z,85.33
2022-09-05T04:30:43.107Z,85.62
2022-09-05T04:31:43.213Z,85.33
2022-09-05T04:32:43.133Z,85.05
2022-09-05T04:33:43.140Z,84.76
2022-09-05T04:34:43.157Z,86.10
2022-09-05T04:35:43.174Z,86.19
2022-09-05T04:36:43.190Z,85.52
2022-09-05T04:37:47.892Z,85.33
2022-09-05T04:38:43.221Z,85.14
2022-09-05T04:39:43.364Z,85.42
2022-09-05T04:40:43.253Z,85.52
2022-09-05T04:41:43.266Z,85.52
2022-09-05T04:42:43.283Z,86.10
2022-09-05T04:43:43.309Z,86.15
2022-09-05T04:44:43.412Z,86.47
2022-09-05T04:45:43.473Z,86.34
2022-09-05T04:46:48.450Z,87.20
2022-09-05T04:47:43.362Z,87.72
2022-09-05T04:48:43.372Z,87.68
2022-09-05T04:49:43.396Z,87.39
2022-09-05T04:50:43.403Z,87.58
2022-09-05T04:51:44.021Z,87.68
2022-09-05T04:52:43.445Z,87.58
2022-09-05T04:53:43.450Z,87.68
2022-09-05T04:54:43.569Z,87.77
2022-09-05T04:55:48.300Z,88.15
2022-09-05T04:56:43.497Z,88.15
2022-09-05T04:57:43.513Z,88.06
2022-09-05T04:59:34.297Z,87.58
2022-09-05T05:03:56.517Z,87.77
2022-09-05T05:06:02.382Z,87.20
2022-09-05T05:06:05.548Z,87.68
2022-09-05T05:06:12.238Z,86.82
2022-09-05T05:06:15.297Z,86.43
2022-09-05T05:06:15.490Z,86.34
2022-09-05T05:06:16.111Z,86.53
2022-09-05T05:06:46.574Z,86.72
2022-09-05T05:07:43.798Z,86.15
2022-09-05T05:08:43.843Z,86.05
2022-09-05T05:09:43.694Z,85.96
2022-09-05T05:12:50.921Z,86.05
2022-09-05T05:16:29.853Z,86.34
2022-09-05T05:17:56.599Z,85.96
2022-09-05T05:17:58.202Z,85.96
2022-09-05T05:17:59.442Z,86.15
2022-09-05T05:18:12.355Z,86.15
2022-09-05T05:18:13.567Z,86.15
2022-09-05T05:18:15.330Z,86.34
2022-09-05T05:18:57.659Z,85.67
2022-09-05T05:19:43.961Z,86.15
2022-09-05T05:20:44.337Z,85.86
2022-09-05T05:21:43.870Z,86.15
2022-09-05T05:22:43.884Z,86.15
2022-09-05T05:23:43.901Z,86.15
2022-09-05T05:24:43.912Z,86.05
2022-09-05T05:25:43.933Z,85.77
2022-09-05T05:26:43.945Z,85.48
2022-09-05T05:27:43.971Z,85.71
2022-09-05T05:28:43.978Z,85.00
2022-09-05T05:29:44.006Z,85.90
2022-09-05T05:30:44.011Z,85.38
2022-09-05T05:31:44.094Z,85.48
2022-09-05T05:32:45.817Z,85.29
2022-09-05T05:33:44.047Z,85.52
2022-09-05T05:34:44.067Z,85.10
2022-09-05T05:35:48.433Z,85.38
2022-09-05T05:36:44.096Z,85.48
2022-09-05T05:37:44.110Z,85.33
2022-09-05T05:38:44.131Z,85.42
2022-09-05T05:39:44.199Z,85.05
2022-09-05T05:40:51.101Z,85.52
2022-09-05T05:41:44.170Z,85.33
2022-09-05T05:42:44.288Z,85.62
2022-09-05T05:43:46.656Z,85.05
2022-09-05T05:44:44.215Z,84.76
2022-09-05T05:45:44.318Z,85.52
2022-09-05T05:46:44.248Z,85.52
2022-09-05T05:47:44.310Z,85.62
2022-09-05T05:48:48.383Z,85.52
2022-09-05T05:49:44.291Z,85.71
2022-09-05T05:50:44.307Z,85.71
2022-09-05T05:52:00.893Z,86.29
2022-09-05T05:52:44.339Z,86.10
2022-09-05T05:53:47.912Z,85.90
2022-09-05T05:54:44.465Z,85.90
2022-09-05T05:55:51.588Z,86.47
2022-09-05T05:56:44.400Z,86.38
2022-09-05T05:57:44.410Z,85.81
2022-09-05T05:58:44.426Z,85.81
2022-09-05T05:59:55.368Z,86.76
2022-09-05T06:00:51.482Z,86.00
2022-09-05T06:01:44.607Z,86.10
2022-09-05T06:02:44.664Z,85.24
2022-09-05T06:03:44.603Z,85.42
2022-09-05T06:04:45.094Z,85.71
2022-09-05T06:05:44.529Z,86.38
2022-09-05T06:06:44.547Z,86.10
2022-09-05T06:08:01.228Z,86.00
2022-09-05T06:10:44.373Z,85.81
2022-09-05T06:14:49.614Z,85.52
2022-09-05T06:14:51.435Z,86.19
2022-09-05T06:14:57.019Z,86.29
2022-09-05T06:14:58.263Z,85.52
2022-09-05T06:14:59.173Z,86.10
2022-09-05T06:15:01.622Z,86.10
2022-09-05T06:15:44.683Z,86.38
2022-09-05T06:16:44.744Z,86.00
2022-09-05T06:17:44.714Z,85.90
2022-09-05T06:18:45.702Z,86.19
2022-09-05T06:20:22.936Z,86.00
2022-09-05T06:22:08.928Z,85.90
2022-09-05T06:22:10.456Z,86.19
2022-09-05T06:22:44.789Z,85.90
2022-09-05T06:23:45.211Z,86.29
2022-09-05T06:24:44.816Z,86.29
2022-09-05T06:25:44.830Z,86.52
2022-09-05T06:26:44.850Z,86.80
2022-09-05T06:28:01.653Z,87.00
2022-09-05T06:28:44.880Z,86.52
2022-09-05T06:29:47.185Z,85.85
2022-09-05T06:30:44.907Z,86.90
2022-09-05T06:31:44.986Z,86.90
2022-09-05T06:32:53.904Z,86.71
2022-09-05T06:33:44.961Z,86.90
2022-09-05T06:34:44.971Z,87.29
2022-09-05T06:35:45.037Z,86.61
2022-09-05T06:36:45.004Z,86.52
2022-09-05T06:37:45.019Z,86.71
2022-09-05T06:38:45.028Z,86.52
2022-09-05T06:39:47.793Z,86.61
2022-09-05T06:40:45.064Z,85.66
2022-09-05T06:41:45.097Z,85.57
2022-09-05T06:42:45.092Z,86.23
2022-09-05T06:43:45.112Z,85.66
2022-09-05T06:44:45.124Z,85.28
2022-09-05T06:45:46.633Z,85.94
2022-09-05T06:46:54.856Z,86.80
2022-09-05T06:47:45.210Z,86.76
2022-09-05T06:48:58.629Z,85.99
2022-09-05T06:49:46.197Z,85.47
2022-09-05T06:51:08.075Z,84.55
2022-09-05T06:51:46.349Z,84.75
2022-09-05T06:52:45.247Z,84.17
2022-09-05T06:53:45.265Z,83.98
2022-09-05T06:54:47.296Z,83.98
2022-09-05T06:55:45.297Z,84.17
2022-09-05T06:56:45.311Z,84.46
2022-09-05T06:57:45.426Z,85.80
2022-09-05T06:58:45.339Z,85.80
2022-09-05T06:59:45.355Z,85.71
2022-09-05T07:00:45.415Z,85.61
2022-09-05T07:01:59.739Z,86.90
2022-09-05T07:02:59.198Z,84.79
2022-09-05T07:03:45.419Z,84.69
2022-09-05T07:05:37.388Z,84.12
2022-09-05T07:05:45.808Z,83.49
2022-09-05T07:07:01.235Z,83.83
2022-09-05T07:07:46.171Z,82.53
2022-09-05T07:08:45.496Z,81.77
2022-09-05T07:09:45.512Z,81.48
2022-09-05T07:10:45.524Z,82.15
2022-09-05T07:11:45.545Z,82.43
2022-09-05T07:12:45.660Z,81.77
2022-09-05T07:13:45.578Z,81.57
2022-09-05T07:14:45.597Z,81.48
2022-09-05T07:15:45.607Z,80.62
2022-09-05T07:16:45.643Z,80.90
2022-09-05T07:18:08.911Z,80.24
2022-09-05T07:18:45.661Z,80.90
2022-09-05T07:19:45.673Z,80.33
2022-09-05T07:21:16.764Z,79.85
2022-09-05T07:21:45.705Z,79.66
2022-09-05T07:22:47.707Z,79.57
2022-09-05T07:24:06.155Z,79.03
2022-09-05T07:24:54.349Z,78.64
2022-09-05T07:25:45.765Z,79.60
2022-09-05T07:26:54.733Z,79.32
2022-09-05T07:28:26.715Z,79.64
2022-09-05T07:28:45.816Z,79.64
2022-09-05T07:29:57.857Z,77.82
2022-09-05T07:30:45.845Z,78.02
2022-09-05T07:31:45.885Z,76.86
2022-09-05T07:32:45.879Z,76.67
2022-09-05T07:33:45.893Z,77.06
2022-09-05T07:34:45.906Z,76.73
2022-09-05T07:35:45.921Z,77.40
2022-09-05T07:36:45.940Z,77.92
2022-09-05T07:37:45.956Z,78.02
2022-09-05T07:38:54.851Z,78.49
2022-09-05T07:39:46.022Z,77.19
2022-09-05T07:40:46.006Z,76.29
2022-09-05T07:41:46.019Z,78.25
2022-09-05T07:42:46.038Z,76.62
2022-09-05T07:43:46.050Z,76.32
2022-09-05T07:44:46.068Z,75.56
2022-09-05T07:45:46.353Z,76.52
2022-09-05T07:46:46.100Z,75.46
2022-09-05T07:47:46.116Z,76.71
2022-09-05T07:48:46.131Z,76.23
2022-09-05T07:50:45.825Z,75.75
2022-09-05T07:54:57.815Z,76.14
2022-09-05T07:55:13.811Z,76.32
2022-09-05T07:56:55.221Z,76.75
2022-09-05T07:57:01.852Z,75.27
2022-09-05T07:57:06.382Z,75.37
2022-09-05T07:57:08.982Z,75.65
2022-09-05T07:57:20.827Z,75.65
2022-09-05T07:57:51.953Z,76.32
2022-09-05T07:58:46.296Z,76.32
2022-09-05T07:59:46.311Z,75.65
2022-09-05T08:00:46.352Z,74.98
2022-09-05T08:01:46.342Z,74.69
2022-09-05T08:02:51.462Z,74.79
2022-09-05T08:03:46.374Z,74.31
2022-09-05T08:04:46.473Z,75.65
2022-09-05T08:05:46.407Z,76.32
2022-09-05T08:07:48.048Z,75.27
2022-09-05T08:07:51.742Z,75.56
2022-09-05T08:09:00.319Z,76.14
2022-09-05T08:10:05.995Z,76.07
2022-09-05T08:11:23.185Z,75.02
2022-09-05T08:11:48.243Z,75.12
2022-09-05T08:13:22.467Z,75.21
2022-09-05T08:13:47.067Z,75.18
2022-09-05T08:14:46.563Z,75.37
2022-09-05T08:16:10.325Z,75.31
2022-09-05T08:16:46.621Z,74.44
2022-09-05T08:17:46.606Z,75.50
2022-09-05T08:18:46.625Z,74.93
2022-09-05T08:19:46.637Z,74.83
2022-09-05T08:20:46.656Z,74.44
2022-09-05T08:21:46.671Z,74.83
2022-09-05T08:22:48.002Z,75.89
2022-09-05T08:23:46.705Z,75.25
2022-09-05T08:24:46.720Z,74.01
2022-09-05T08:25:57.415Z,73.43
2022-09-05T08:26:47.404Z,73.14
2022-09-05T08:27:46.767Z,71.80
2022-09-05T08:28:46.783Z,72.47
2022-09-05T08:29:46.802Z,74.52
2022-09-05T08:30:46.819Z,72.50
2022-09-05T08:31:46.874Z,71.45
2022-09-05T08:32:46.854Z,71.64
2022-09-05T08:33:46.868Z,71.35
2022-09-05T08:34:46.886Z,71.55
2022-09-05T08:35:46.905Z,71.41
2022-09-05T08:36:46.921Z,71.70
2022-09-05T08:37:46.937Z,72.95
2022-09-05T08:38:46.951Z,71.19
2022-09-05T08:39:47.024Z,71.66
2022-09-05T08:40:46.987Z,73.62
2022-09-05T08:41:52.301Z,72.47
2022-09-05T08:42:52.728Z,72.56
2022-09-05T08:46:39.340Z,72.31
2022-09-05T08:46:39.915Z,72.28
2022-09-05T08:46:43.476Z,71.93
2022-09-05T08:46:49.648Z,70.39
2022-09-05T08:47:47.123Z,70.68
2022-09-05T08:48:47.127Z,71.93
2022-09-05T08:49:47.141Z,71.39
2022-09-05T08:50:47.157Z,70.62
2022-09-05T08:51:54.318Z,71.04
2022-09-05T08:52:47.190Z,69.18
2022-09-05T08:53:47.322Z,69.75
2022-09-05T08:54:47.324Z,70.56
2022-09-05T08:55:47.249Z,69.73
2022-09-05T08:56:47.267Z,69.24
2022-09-05T08:57:47.275Z,68.57
2022-09-05T08:58:47.298Z,68.57
2022-09-05T08:59:59.229Z,67.58
2022-09-05T09:00:55.025Z,68.44
2022-09-05T09:02:44.984Z,69.12
2022-09-05T09:02:53.526Z,67.19
2022-09-05T09:03:51.845Z,68.63
2022-09-05T09:05:01.130Z,69.40
2022-09-05T09:06:12.209Z,69.12
2022-09-05T09:06:57.979Z,69.21
2022-09-05T09:07:52.183Z,69.34
2022-09-05T09:08:47.471Z,68.41
2022-09-05T09:09:47.488Z,67.74
2022-09-05T09:10:47.514Z,67.16
2022-09-05T09:11:47.527Z,68.03
2022-09-05T09:12:47.545Z,66.78
2022-09-05T09:13:47.562Z,67.58
2022-09-05T09:14:47.582Z,65.46
2022-09-05T09:15:47.644Z,64.76
2022-09-05T09:16:47.615Z,66.78
2022-09-05T09:17:47.634Z,66.39
2022-09-05T09:18:47.651Z,66.46
2022-09-05T09:19:47.674Z,67.03
2022-09-05T09:20:47.689Z,67.32
2022-09-05T09:21:47.804Z,66.94
2022-09-05T09:22:47.724Z,68.29
2022-09-05T09:23:47.739Z,67.32
2022-09-05T09:24:54.089Z,67.35
2022-09-05T09:25:47.782Z,66.58
2022-09-05T09:26:47.800Z,65.05
2022-09-05T09:28:48.343Z,65.63
2022-09-05T09:28:51.362Z,65.85
2022-09-05T09:29:47.852Z,64.69
2022-09-05T09:30:47.873Z,63.70
2022-09-05T09:31:47.952Z,66.07
2022-09-05T09:32:47.908Z,67.64
2022-09-05T09:33:47.973Z,69.37
2022-09-05T09:34:49.241Z,68.89
2022-09-05T09:35:47.983Z,69.11
2022-09-05T09:36:47.982Z,70.36
2022-09-05T09:37:50.802Z,71.31
2022-09-05T09:38:48.026Z,71.83
2022-09-05T09:39:48.158Z,70.75
2022-09-05T09:40:52.390Z,70.37
2022-09-05T09:41:48.076Z,69.02
2022-09-05T09:42:48.096Z,67.83
2022-09-05T09:43:52.778Z,69.18
2022-09-05T09:44:48.133Z,69.95
2022-09-05T09:45:48.148Z,68.89
2022-09-05T09:46:48.274Z,68.35
2022-09-05T09:47:48.182Z,68.19
2022-09-05T09:48:48.203Z,68.51
2022-09-05T09:49:48.220Z,65.94
2022-09-05T09:50:58.118Z,65.27
2022-09-05T09:51:48.254Z,65.59
2022-09-05T09:52:48.279Z,65.24
2022-09-05T09:53:48.292Z,63.50
2022-09-05T09:54:48.315Z,62.25
2022-09-05T09:55:48.336Z,62.15
2022-09-05T09:56:48.350Z,62.35
2022-09-05T09:57:48.368Z,61.93
2022-09-05T09:58:48.386Z,63.95
2022-09-05T09:59:54.115Z,63.57
2022-09-05T10:00:48.425Z,62.45
2022-09-05T10:01:48.482Z,62.09
2022-09-05T10:06:51.004Z,61.19
2022-09-05T10:08:22.941Z,60.71
2022-09-05T10:10:37.981Z,61.55
2022-09-05T10:10:46.658Z,60.32
2022-09-05T10:10:48.194Z,62.96
2022-09-05T10:10:49.590Z,61.83
2022-09-05T10:10:56.269Z,62.25
2022-09-05T10:10:58.213Z,62.03
2022-09-05T10:11:22.469Z,61.19
2022-09-05T10:11:54.091Z,60.97
2022-09-05T10:12:53.219Z,63.31
2022-09-05T10:23:07.651Z,61.06
2022-09-05T10:24:07.667Z,60.31
2022-09-05T10:25:19.450Z,59.32
2022-09-05T10:26:08.086Z,59.75
2022-09-05T10:28:39.357Z,60.03
2022-09-05T10:29:39.367Z,60.55
2022-09-05T10:31:09.605Z,61.83
2022-09-05T10:34:18.112Z,61.45
2022-09-05T10:35:08.675Z,61.74
2022-09-05T10:35:15.252Z,63.06
2022-09-05T10:35:17.612Z,62.90
2022-09-05T10:35:39.493Z,59.75
2022-09-05T10:36:39.478Z,60.49
2022-09-05T10:37:39.500Z,60.20
2022-09-05T10:38:39.518Z,59.94
2022-09-05T10:39:39.589Z,58.97
2022-09-05T10:40:51.439Z,58.33
2022-09-05T10:41:39.576Z,57.23
2022-09-05T10:42:43.436Z,55.18
2022-09-05T10:43:39.614Z,56.74
2022-09-05T10:44:39.638Z,56.30
2022-09-05T10:45:39.645Z,57.89
2022-09-05T10:46:50.657Z,58.78
2022-09-05T10:47:39.686Z,58.30
2022-09-05T10:48:39.712Z,57.60
2022-09-05T10:49:39.729Z,57.21
2022-09-05T10:50:39.745Z,56.95
2022-09-05T10:51:39.764Z,57.34
2022-09-05T10:52:39.781Z,58.17
2022-09-05T10:53:40.249Z,56.74
2022-09-05T10:54:40.076Z,54.88
2022-09-05T10:55:39.843Z,55.22
2022-09-05T10:56:39.872Z,57.09
2022-09-05T10:57:39.887Z,58.72
2022-09-05T11:00:45.792Z,59.72
2022-09-05T11:02:21.587Z,58.97
2022-09-05T11:02:22.125Z,56.39
2022-09-05T11:02:22.695Z,57.87
2022-09-05T11:02:45.447Z,55.04
2022-09-05T11:03:40.056Z,54.31
2022-09-05T11:04:49.596Z,56.15
2022-09-05T11:05:40.124Z,57.21
2022-09-05T11:06:40.310Z,56.27
2022-09-05T11:07:40.078Z,56.37
2022-09-05T11:08:40.099Z,56.43
2022-09-05T11:09:40.136Z,54.27
2022-09-05T11:10:40.140Z,51.27
2022-09-05T11:11:40.157Z,51.78
2022-09-05T11:12:40.182Z,51.17
2022-09-05T11:13:40.205Z,50.04
2022-09-05T11:14:40.220Z,47.77
2022-09-05T11:15:47.814Z,48.33
2022-09-05T11:16:40.349Z,48.71
2022-09-05T11:17:40.286Z,49.77
2022-09-05T11:18:56.329Z,49.90
2022-09-05T11:19:40.323Z,48.18
2022-09-05T11:20:40.346Z,47.02
2022-09-05T11:21:40.371Z,47.33
2022-09-05T11:22:40.382Z,46.49
2022-09-05T11:23:40.409Z,45.45
2022-09-05T11:24:40.425Z,45.45
2022-09-05T11:25:41.336Z,46.05
2022-09-05T11:26:40.467Z,44.87
2022-09-05T11:27:40.485Z,45.35
2022-09-05T11:28:58.154Z,46.58
2022-09-05T11:29:40.534Z,48.61
2022-09-05T11:30:40.667Z,48.23
2022-09-05T11:31:47.754Z,46.70
2022-09-05T11:36:06.931Z,46.54
2022-09-05T11:39:08.707Z,48.66
2022-09-05T11:39:52.768Z,48.69
2022-09-05T11:39:53.820Z,47.55
2022-09-05T11:39:55.600Z,48.30
2022-09-05T11:39:57.628Z,47.31
2022-09-05T11:40:04.607Z,46.75
2022-09-05T11:40:06.814Z,47.70
2022-09-05T11:41:01.037Z,48.30
2022-09-05T11:41:40.806Z,49.10
2022-09-05T11:42:40.806Z,46.78
2022-09-05T11:43:40.825Z,46.56
2022-09-05T11:44:40.851Z,48.35
2022-09-05T11:45:40.872Z,46.70
2022-09-05T11:46:40.946Z,46.61
2022-09-05T11:47:44.450Z,46.03
2022-09-05T11:48:44.547Z,46.61
2022-09-05T11:49:40.954Z,45.64
2022-09-05T11:50:40.980Z,45.83
2022-09-05T11:51:41.009Z,46.32
2022-09-05T11:52:41.018Z,45.04
2022-09-05T11:53:41.043Z,46.15
2022-09-05T11:54:41.079Z,47.81
2022-09-05T11:55:41.086Z,47.38
2022-09-05T11:56:45.658Z,47.79
2022-09-05T11:57:41.132Z,44.89
2022-09-05T11:58:45.052Z,44.98
2022-09-05T11:59:44.964Z,45.52
2022-09-05T12:00:41.196Z,46.49
2022-09-05T12:01:44.100Z,47.09
2022-09-05T12:02:41.275Z,45.52
2022-09-05T12:03:59.704Z,45.52
2022-09-05T12:04:41.325Z,45.59
2022-09-05T12:05:50.260Z,46.25
2022-09-05T12:06:49.345Z,46.59
2022-09-05T12:07:41.356Z,48.35
2022-09-05T12:08:41.372Z,46.83
2022-09-05T12:09:41.393Z,47.33
2022-09-05T12:10:47.419Z,46.66
2022-09-05T12:11:43.287Z,46.39
2022-09-05T12:12:43.456Z,45.57
2022-09-05T12:13:41.478Z,44.19
2022-09-05T12:14:44.142Z,43.78
2022-09-05T12:15:49.702Z,44.15
2022-09-05T12:16:41.604Z,45.21
2022-09-05T12:18:41.594Z,44.07
2022-09-05T12:19:41.607Z,46.30
2022-09-05T12:20:43.327Z,45.35
2022-09-05T12:21:41.657Z,44.07
2022-09-05T12:22:41.674Z,44.98
2022-09-05T12:23:53.629Z,44.21
2022-09-05T12:25:24.233Z,43.68
2022-09-05T12:27:41.393Z,44.17
2022-09-05T12:27:42.035Z,45.21
2022-09-05T12:27:46.320Z,45.52
2022-09-05T12:29:29.053Z,45.08
2022-09-05T12:29:48.965Z,44.02
2022-09-05T12:31:00.740Z,44.48
2022-09-05T12:32:34.396Z,43.71
2022-09-05T12:35:57.048Z,43.78
2022-09-05T12:36:05.682Z,45.28
2022-09-05T12:36:07.912Z,46.08
2022-09-05T12:36:11.793Z,46.15
2022-09-05T12:40:38.425Z,46.17
2022-09-05T12:40:53.695Z,45.50
2022-09-05T12:40:55.203Z,46.37
2022-09-05T12:41:38.507Z,45.54
2022-09-05T12:42:08.242Z,45.40
2022-09-05T12:42:10.625Z,45.16
2022-09-05T12:42:11.422Z,43.99
2022-09-05T12:42:56.688Z,43.90
2022-09-05T12:44:39.521Z,43.95
2022-09-05T12:44:44.836Z,43.77
2022-09-05T12:45:44.051Z,42.05
2022-09-05T12:46:42.205Z,42.61
2022-09-05T12:47:42.226Z,43.15
2022-09-05T12:48:42.248Z,43.75
2022-09-05T12:49:47.441Z,43.48
2022-09-05T12:50:42.296Z,42.63
2022-09-05T12:51:46.569Z,42.59
2022-09-05T12:52:42.337Z,43.46
2022-09-05T12:53:42.366Z,42.96
2022-09-05T12:54:42.388Z,43.80
2022-09-05T12:55:42.410Z,43.82
2022-09-05T12:57:48.999Z,43.71
2022-09-05T12:58:34.651Z,44.48
2022-09-05T13:03:01.125Z,44.87
2022-09-05T13:03:04.084Z,44.57
2022-09-05T13:03:06.579Z,43.75
2022-09-05T13:03:08.111Z,45.47
2022-09-05T13:03:13.209Z,44.02
2022-09-05T13:04:06.102Z,42.97